Photometre #44[NE_1.6] Rome_La_Sapienza AOT

File : 20220927_44.hum

27/09/2022,05:50:31,TEMP=18.3,BA=5.68,STAT.A=6.5,ExtBa=13.35
27/09/2022,05:54:00,TEMP=18.5,BA=5.68,STAT.A=6.5,ExtBa=13.16
27/09/2022,05:58:03,TEMP=18.7,BA=5.68,STAT.A=6.5,ExtBa=13.22
27/09/2022,06:02:53,TEMP=18.9,BA=5.52,STAT.A=6.5,ExtBa=13.18
27/09/2022,06:08:43,TEMP=19.1,BA=5.52,STAT.A=6.5,ExtBa=13.23
27/09/2022,06:15:54,TEMP=19.6,BA=5.52,STAT.A=6.5,ExtBa=13.30
27/09/2022,06:24:59,TEMP=20.2,BA=5.68,STAT.B=6.5,ExtBa=13.32
27/09/2022,06:37:00,TEMP=20.8,BA=5.52,STAT.A=6.5,ExtBa=12.97
27/09/2022,06:39:16,TEMP=21.1,BA=5.52,STAT.A=6.5,ExtBa=13.00
27/09/2022,06:41:26,TEMP=21.3,BA=5.52,STAT.A=6.5,ExtBa=13.03
27/09/2022,06:45:59,TEMP=21.4,BA=5.52,STAT.A=6.5,ExtBa=13.14
27/09/2022,06:53:11,TEMP=21.8,BA=5.68,STAT.C=6.5,ExtBa=13.28
27/09/2022,07:05:43,TEMP=21.4,BA=5.52,STAT.A=6.5,ExtBa=13.05
27/09/2022,07:11:27,TEMP=21.3,BA=5.68,STAT.A=6.5,ExtBa=13.19
27/09/2022,07:23:22,TEMP=22.5,BA=5.68,STAT.A=6.5,ExtBa=13.36
27/09/2022,07:38:03,TEMP=23.4,BA=5.68,STAT.A=6.5,ExtBa=13.45
27/09/2022,07:56:44,TEMP=24.2,BA=5.68,STAT.B=6.5,ExtBa=13.48
27/09/2022,08:08:00,TEMP=24.5,BA=5.52,STAT.F,ExtBa=13.00
27/09/2022,08:25:59,TEMP=25.8,BA=5.52,STAT.D=6.5,ExtBa=12.99
27/09/2022,08:31:33,TEMP=26.1,BA=5.60,STAT.D=6.5,ExtBa=13.17
27/09/2022,08:46:34,TEMP=26.9,BA=5.64,STAT.D=7.0,ExtBa=13.38
27/09/2022,09:01:35,TEMP=26.6,BA=5.64,STAT.F,ExtBa=13.41
27/09/2022,09:16:34,TEMP=25.9,BA=5.60,STAT.D=7.0,ExtBa=13.43
27/09/2022,09:31:34,TEMP=26.5,BA=5.56,STAT.D=7.0,ExtBa=13.44
27/09/2022,09:46:34,TEMP=27.1,BA=5.56,STAT.D=7.0,ExtBa=13.45
27/09/2022,10:19:34,TEMP=27.1,BA=5.48,STAT.b=7.0
27/09/2022,10:31:33,TEMP=26.6,BA=5.52,STAT.D=7.0,ExtBa=13.37
27/09/2022,10:46:34,TEMP=27.0,BA=5.52,STAT.D=7.0,ExtBa=13.43
27/09/2022,11:01:36,TEMP=26.6,BA=5.52,STAT.F,ExtBa=13.44
27/09/2022,11:19:27,TEMP=26.0,BA=5.48,STAT.D=7.0,ExtBa=13.03
27/09/2022,11:31:34,TEMP=26.1,BA=5.52,STAT.D=7.0,ExtBa=13.34
27/09/2022,11:46:34,TEMP=25.8,BA=5.52,STAT.D=7.0,ExtBa=13.41
27/09/2022,12:19:27,TEMP=26.0,BA=5.44,STAT.b=7.0
27/09/2022,12:31:33,TEMP=25.5,BA=5.56,STAT.D=7.0,ExtBa=13.34
27/09/2022,12:46:34,TEMP=24.9,BA=5.56,STAT.D=7.0,ExtBa=13.40
27/09/2022,13:01:35,TEMP=24.0,BA=5.56,STAT.F,ExtBa=13.42
27/09/2022,13:16:34,TEMP=23.4,BA=5.60,STAT.D=7.0,ExtBa=13.42
27/09/2022,13:31:33,TEMP=22.9,BA=5.60,STAT.D=6.5,ExtBa=13.40
27/09/2022,13:46:33,TEMP=23.4,BA=5.60,STAT.D=6.5,ExtBa=13.38
27/09/2022,14:01:35,TEMP=23.8,BA=5.64,STAT.F,ExtBa=13.36
27/09/2022,14:13:05,TEMP=23.9,BA=5.48,STAT.b=6.5
27/09/2022,14:13:59,TEMP=23.9,BA=5.48,STAT.B=6.5,ExtBa=13.10
27/09/2022,14:25:07,TEMP=23.2,BA=5.60,STAT.A=6.5,ExtBa=13.39
27/09/2022,14:39:48,TEMP=23.9,BA=5.64,STAT.A=6.5,ExtBa=13.46
27/09/2022,14:51:41,TEMP=24.0,BA=5.64,STAT.A=6.5,ExtBa=13.42
27/09/2022,15:01:34,TEMP=23.5,BA=5.64,STAT.A=6.5,ExtBa=13.38
27/09/2022,15:09:57,TEMP=23.1,BA=5.64,STAT.C=6.5,ExtBa=13.37
27/09/2022,15:17:09,TEMP=22.8,BA=5.52,STAT.A=6.5,ExtBa=13.36
27/09/2022,15:23:25,TEMP=22.7,BA=5.60,STAT.A=6.5,ExtBa=13.35
27/09/2022,15:28:55,TEMP=22.6,BA=5.60,STAT.A=6.5,ExtBa=13.34
27/09/2022,15:33:48,TEMP=22.5,BA=5.48,STAT.A=6.5,ExtBa=13.34
27/09/2022,15:38:09,TEMP=22.5,BA=5.48,STAT.B=6.5,ExtBa=13.33
27/09/2022,15:47:14,TEMP=22.3,BA=5.52,STAT.A=6.5,ExtBa=13.33
27/09/2022,15:54:24,TEMP=22.8,BA=5.48,STAT.A=6.5,ExtBa=13.30
27/09/2022,16:00:15,TEMP=21.9,BA=5.60,STAT.A=6.5,ExtBa=13.33
27/09/2022,16:05:03,TEMP=21.8,BA=5.60,STAT.A=6.5,ExtBa=13.32
27/09/2022,16:09:08,TEMP=21.7,BA=5.60,STAT.A=6.5,ExtBa=13.32
27/09/2022,16:12:37,TEMP=21.5,BA=5.48,STAT.A=6.5,ExtBa=13.32